sensor_id;sensor_type;location;lat;lon;timestamp;P1;durP1;ratioP1;P2;durP2;ratioP2
67828;SDS011;54626;45.436;10.942;2022-09-09T00:05:34;9.18;;;3.10;;
67828;SDS011;54626;45.436;10.942;2022-09-09T00:07:48;5.13;;;2.03;;
67828;SDS011;54626;45.436;10.942;2022-09-09T00:10:30;6.45;;;3.15;;
67828;SDS011;54626;45.436;10.942;2022-09-09T00:21:15;4.40;;;2.00;;
67828;SDS011;54626;45.436;10.942;2022-09-09T00:23:44;5.32;;;3.10;;
67828;SDS011;54626;45.436;10.942;2022-09-09T00:29:05;7.57;;;2.17;;
67828;SDS011;54626;45.436;10.942;2022-09-09T00:31:43;7.55;;;3.05;;
67828;SDS011;54626;45.436;10.942;2022-09-09T00:34:14;3.10;;;1.63;;
67828;SDS011;54626;45.436;10.942;2022-09-09T00:36:43;5.80;;;2.92;;
67828;SDS011;54626;45.436;10.942;2022-09-09T00:39:23;6.18;;;3.13;;
67828;SDS011;54626;45.436;10.942;2022-09-09T00:44:59;6.00;;;2.72;;
67828;SDS011;54626;45.436;10.942;2022-09-09T00:47:36;5.85;;;3.00;;
67828;SDS011;54626;45.436;10.942;2022-09-09T00:50:10;6.13;;;3.42;;
67828;SDS011;54626;45.436;10.942;2022-09-09T00:56:03;6.53;;;3.20;;
67828;SDS011;54626;45.436;10.942;2022-09-09T00:58:08;6.13;;;2.13;;
67828;SDS011;54626;45.436;10.942;2022-09-09T01:00:38;5.20;;;2.03;;
67828;SDS011;54626;45.436;10.942;2022-09-09T01:11:22;4.28;;;1.92;;
67828;SDS011;54626;45.436;10.942;2022-09-09T01:16:59;4.72;;;1.88;;
67828;SDS011;54626;45.436;10.942;2022-09-09T01:27:36;2.95;;;1.73;;
67828;SDS011;54626;45.436;10.942;2022-09-09T01:30:13;5.03;;;1.77;;
67828;SDS011;54626;45.436;10.942;2022-09-09T01:35:08;2.92;;;1.80;;
67828;SDS011;54626;45.436;10.942;2022-09-09T01:37:38;4.97;;;2.28;;
67828;SDS011;54626;45.436;10.942;2022-09-09T01:40:08;4.22;;;2.17;;
67828;SDS011;54626;45.436;10.942;2022-09-09T01:42:35;3.72;;;2.00;;
67828;SDS011;54626;45.436;10.942;2022-09-09T01:45:01;5.93;;;2.35;;
67828;SDS011;54626;45.436;10.942;2022-09-09T01:47:28;6.30;;;3.25;;
67828;SDS011;54626;45.436;10.942;2022-09-09T01:49:54;6.43;;;2.80;;
67828;SDS011;54626;45.436;10.942;2022-09-09T01:52:21;4.47;;;2.30;;
67828;SDS011;54626;45.436;10.942;2022-09-09T01:54:48;6.38;;;2.95;;
67828;SDS011;54626;45.436;10.942;2022-09-09T01:57:18;6.03;;;1.92;;
67828;SDS011;54626;45.436;10.942;2022-09-09T02:00:01;4.13;;;2.45;;
67828;SDS011;54626;45.436;10.942;2022-09-09T02:03:19;4.57;;;3.00;;
67828;SDS011;54626;45.436;10.942;2022-09-09T02:08:58;9.57;;;3.08;;
67828;SDS011;54626;45.436;10.942;2022-09-09T02:11:27;5.70;;;2.70;;
67828;SDS011;54626;45.436;10.942;2022-09-09T02:13:56;6.97;;;3.13;;
67828;SDS011;54626;45.436;10.942;2022-09-09T02:16:38;6.43;;;2.25;;
67828;SDS011;54626;45.436;10.942;2022-09-09T02:19:11;3.33;;;1.63;;
67828;SDS011;54626;45.436;10.942;2022-09-09T02:21:41;3.17;;;2.22;;
67828;SDS011;54626;45.436;10.942;2022-09-09T02:24:14;5.57;;;2.90;;
67828;SDS011;54626;45.436;10.942;2022-09-09T02:26:42;3.63;;;1.98;;
67828;SDS011;54626;45.436;10.942;2022-09-09T02:29:25;7.07;;;3.00;;
67828;SDS011;54626;45.436;10.942;2022-09-09T02:31:53;3.75;;;1.90;;
67828;SDS011;54626;45.436;10.942;2022-09-09T02:34:23;5.95;;;3.30;;
67828;SDS011;54626;45.436;10.942;2022-09-09T02:36:50;7.63;;;3.30;;
67828;SDS011;54626;45.436;10.942;2022-09-09T02:39:22;8.27;;;3.42;;
67828;SDS011;54626;45.436;10.942;2022-09-09T02:41:48;5.10;;;2.88;;
67828;SDS011;54626;45.436;10.942;2022-09-09T02:44:17;5.28;;;3.00;;
67828;SDS011;54626;45.436;10.942;2022-09-09T02:52:54;4.82;;;2.10;;
67828;SDS011;54626;45.436;10.942;2022-09-09T02:56:02;5.65;;;3.38;;
67828;SDS011;54626;45.436;10.942;2022-09-09T02:58:30;4.68;;;2.42;;
67828;SDS011;54626;45.436;10.942;2022-09-09T03:01:00;4.32;;;2.42;;
67828;SDS011;54626;45.436;10.942;2022-09-09T03:03:34;6.63;;;2.78;;
67828;SDS011;54626;45.436;10.942;2022-09-09T03:06:01;6.65;;;3.22;;
67828;SDS011;54626;45.436;10.942;2022-09-09T03:08:29;5.00;;;3.33;;
67828;SDS011;54626;45.436;10.942;2022-09-09T03:10:58;4.82;;;3.08;;
67828;SDS011;54626;45.436;10.942;2022-09-09T03:13:27;6.75;;;2.95;;
67828;SDS011;54626;45.436;10.942;2022-09-09T03:15:54;4.32;;;2.47;;
67828;SDS011;54626;45.436;10.942;2022-09-09T03:18:20;7.47;;;3.22;;
67828;SDS011;54626;45.436;10.942;2022-09-09T03:21:00;4.10;;;2.70;;
67828;SDS011;54626;45.436;10.942;2022-09-09T03:23:27;8.32;;;3.67;;
67828;SDS011;54626;45.436;10.942;2022-09-09T03:25:54;7.18;;;3.60;;
67828;SDS011;54626;45.436;10.942;2022-09-09T03:28:23;9.77;;;3.47;;
67828;SDS011;54626;45.436;10.942;2022-09-09T03:30:51;5.70;;;2.50;;
67828;SDS011;54626;45.436;10.942;2022-09-09T03:33:18;2.47;;;1.67;;
67828;SDS011;54626;45.436;10.942;2022-09-09T03:35:49;7.43;;;3.17;;
67828;SDS011;54626;45.436;10.942;2022-09-09T03:38:19;4.35;;;2.33;;
67828;SDS011;54626;45.436;10.942;2022-09-09T03:40:52;4.97;;;2.17;;
67828;SDS011;54626;45.436;10.942;2022-09-09T03:43:23;3.88;;;1.63;;
67828;SDS011;54626;45.436;10.942;2022-09-09T03:45:51;5.30;;;2.05;;
67828;SDS011;54626;45.436;10.942;2022-09-09T03:48:18;3.90;;;1.98;;
67828;SDS011;54626;45.436;10.942;2022-09-09T03:50:46;5.70;;;3.08;;
67828;SDS011;54626;45.436;10.942;2022-09-09T03:53:13;4.35;;;1.80;;
67828;SDS011;54626;45.436;10.942;2022-09-09T03:55:49;4.30;;;2.17;;
67828;SDS011;54626;45.436;10.942;2022-09-09T03:58:21;6.70;;;3.50;;
67828;SDS011;54626;45.436;10.942;2022-09-09T04:00:53;3.75;;;1.83;;
67828;SDS011;54626;45.436;10.942;2022-09-09T04:03:20;8.75;;;3.95;;
67828;SDS011;54626;45.436;10.942;2022-09-09T04:05:53;4.18;;;1.70;;
67828;SDS011;54626;45.436;10.942;2022-09-09T04:08:25;3.92;;;1.88;;
67828;SDS011;54626;45.436;10.942;2022-09-09T04:10:52;3.50;;;2.10;;
67828;SDS011;54626;45.436;10.942;2022-09-09T04:13:20;4.35;;;2.05;;
67828;SDS011;54626;45.436;10.942;2022-09-09T04:15:53;4.07;;;2.50;;
67828;SDS011;54626;45.436;10.942;2022-09-09T04:18:21;3.70;;;1.88;;
67828;SDS011;54626;45.436;10.942;2022-09-09T04:20:49;5.88;;;2.92;;
67828;SDS011;54626;45.436;10.942;2022-09-09T04:23:16;4.90;;;2.00;;
67828;SDS011;54626;45.436;10.942;2022-09-09T04:25:50;7.90;;;2.83;;
67828;SDS011;54626;45.436;10.942;2022-09-09T04:28:20;8.43;;;2.65;;
67828;SDS011;54626;45.436;10.942;2022-09-09T04:30:48;7.38;;;3.42;;
67828;SDS011;54626;45.436;10.942;2022-09-09T04:33:15;4.10;;;1.83;;
67828;SDS011;54626;45.436;10.942;2022-09-09T04:35:44;4.60;;;2.42;;
67828;SDS011;54626;45.436;10.942;2022-09-09T04:38:11;3.10;;;1.52;;
67828;SDS011;54626;45.436;10.942;2022-09-09T04:40:37;4.95;;;2.88;;
67828;SDS011;54626;45.436;10.942;2022-09-09T04:45:40;4.95;;;2.20;;
67828;SDS011;54626;45.436;10.942;2022-09-09T04:48:07;3.50;;;1.95;;
67828;SDS011;54626;45.436;10.942;2022-09-09T04:50:36;3.85;;;2.30;;
67828;SDS011;54626;45.436;10.942;2022-09-09T04:53:03;5.82;;;3.08;;
67828;SDS011;54626;45.436;10.942;2022-09-09T04:55:32;4.90;;;2.03;;
67828;SDS011;54626;45.436;10.942;2022-09-09T04:58:06;10.75;;;3.78;;
67828;SDS011;54626;45.436;10.942;2022-09-09T05:00:36;7.60;;;2.60;;
67828;SDS011;54626;45.436;10.942;2022-09-09T05:03:04;5.18;;;2.60;;
67828;SDS011;54626;45.436;10.942;2022-09-09T05:05:32;5.45;;;2.40;;
67828;SDS011;54626;45.436;10.942;2022-09-09T05:08:03;6.35;;;2.30;;
67828;SDS011;54626;45.436;10.942;2022-09-09T05:10:30;5.05;;;2.45;;
67828;SDS011;54626;45.436;10.942;2022-09-09T05:12:57;3.60;;;1.63;;
67828;SDS011;54626;45.436;10.942;2022-09-09T05:15:24;3.20;;;1.80;;
67828;SDS011;54626;45.436;10.942;2022-09-09T05:17:56;5.93;;;3.50;;
67828;SDS011;54626;45.436;10.942;2022-09-09T05:20:26;7.47;;;3.50;;
67828;SDS011;54626;45.436;10.942;2022-09-09T05:22:54;4.40;;;2.13;;
67828;SDS011;54626;45.436;10.942;2022-09-09T05:25:21;6.25;;;3.22;;
67828;SDS011;54626;45.436;10.942;2022-09-09T05:27:52;6.43;;;3.05;;
67828;SDS011;54626;45.436;10.942;2022-09-09T05:30:21;7.82;;;3.17;;
67828;SDS011;54626;45.436;10.942;2022-09-09T05:32:49;3.72;;;2.20;;
67828;SDS011;54626;45.436;10.942;2022-09-09T05:35:18;5.95;;;2.90;;
67828;SDS011;54626;45.436;10.942;2022-09-09T05:37:47;7.68;;;2.70;;
67828;SDS011;54626;45.436;10.942;2022-09-09T05:40:14;6.57;;;3.10;;
67828;SDS011;54626;45.436;10.942;2022-09-09T05:42:41;11.38;;;3.75;;
67828;SDS011;54626;45.436;10.942;2022-09-09T05:45:08;6.45;;;3.03;;
67828;SDS011;54626;45.436;10.942;2022-09-09T05:47:35;6.60;;;2.95;;
67828;SDS011;54626;45.436;10.942;2022-09-09T05:50:03;7.68;;;3.45;;
67828;SDS011;54626;45.436;10.942;2022-09-09T05:52:30;6.95;;;3.20;;
67828;SDS011;54626;45.436;10.942;2022-09-09T05:54:57;8.68;;;3.25;;
67828;SDS011;54626;45.436;10.942;2022-09-09T05:57:27;10.20;;;3.40;;
67828;SDS011;54626;45.436;10.942;2022-09-09T05:59:57;6.47;;;3.00;;
67828;SDS011;54626;45.436;10.942;2022-09-09T06:02:26;6.30;;;2.97;;
67828;SDS011;54626;45.436;10.942;2022-09-09T06:04:53;7.80;;;3.22;;
67828;SDS011;54626;45.436;10.942;2022-09-09T06:07:28;4.88;;;2.85;;
67828;SDS011;54626;45.436;10.942;2022-09-09T06:09:56;3.08;;;1.65;;
67828;SDS011;54626;45.436;10.942;2022-09-09T06:12:25;5.53;;;2.25;;
67828;SDS011;54626;45.436;10.942;2022-09-09T06:14:52;4.63;;;2.08;;
67828;SDS011;54626;45.436;10.942;2022-09-09T06:17:18;5.75;;;2.00;;
67828;SDS011;54626;45.436;10.942;2022-09-09T06:19:47;6.97;;;3.20;;
67828;SDS011;54626;45.436;10.942;2022-09-09T06:22:14;5.50;;;2.35;;
67828;SDS011;54626;45.436;10.942;2022-09-09T06:24:40;3.17;;;1.67;;
67828;SDS011;54626;45.436;10.942;2022-09-09T06:27:07;2.83;;;1.77;;
67828;SDS011;54626;45.436;10.942;2022-09-09T06:29:34;2.63;;;1.77;;
67828;SDS011;54626;45.436;10.942;2022-09-09T06:32:02;3.35;;;1.70;;
67828;SDS011;54626;45.436;10.942;2022-09-09T06:34:31;3.35;;;1.55;;
67828;SDS011;54626;45.436;10.942;2022-09-09T06:36:58;4.72;;;2.30;;
67828;SDS011;54626;45.436;10.942;2022-09-09T06:39:24;3.53;;;1.90;;
67828;SDS011;54626;45.436;10.942;2022-09-09T06:41:56;4.25;;;1.80;;
67828;SDS011;54626;45.436;10.942;2022-09-09T06:44:24;2.92;;;1.58;;
67828;SDS011;54626;45.436;10.942;2022-09-09T06:46:57;2.80;;;1.80;;
67828;SDS011;54626;45.436;10.942;2022-09-09T06:49:23;3.28;;;1.90;;
67828;SDS011;54626;45.436;10.942;2022-09-09T06:51:50;3.28;;;1.88;;
67828;SDS011;54626;45.436;10.942;2022-09-09T06:54:21;2.67;;;1.75;;
67828;SDS011;54626;45.436;10.942;2022-09-09T06:56:50;2.47;;;1.30;;
67828;SDS011;54626;45.436;10.942;2022-09-09T06:59:19;2.70;;;1.48;;
67828;SDS011;54626;45.436;10.942;2022-09-09T07:01:48;5.97;;;1.83;;
67828;SDS011;54626;45.436;10.942;2022-09-09T07:04:20;2.60;;;1.35;;
67828;SDS011;54626;45.436;10.942;2022-09-09T07:06:48;4.60;;;1.52;;
67828;SDS011;54626;45.436;10.942;2022-09-09T07:09:22;6.10;;;1.58;;
67828;SDS011;54626;45.436;10.942;2022-09-09T07:11:50;6.20;;;2.03;;
67828;SDS011;54626;45.436;10.942;2022-09-09T07:14:21;2.60;;;1.38;;
67828;SDS011;54626;45.436;10.942;2022-09-09T07:16:48;3.17;;;1.13;;
67828;SDS011;54626;45.436;10.942;2022-09-09T07:19:15;2.88;;;1.02;;
67828;SDS011;54626;45.436;10.942;2022-09-09T07:21:42;2.55;;;0.93;;
67828;SDS011;54626;45.436;10.942;2022-09-09T07:24:12;4.03;;;1.23;;
67828;SDS011;54626;45.436;10.942;2022-09-09T07:26:40;4.60;;;1.52;;
67828;SDS011;54626;45.436;10.942;2022-09-09T07:29:08;1.52;;;0.90;;
67828;SDS011;54626;45.436;10.942;2022-09-09T07:31:45;4.68;;;1.80;;
67828;SDS011;54626;45.436;10.942;2022-09-09T07:34:14;3.38;;;1.20;;
67828;SDS011;54626;45.436;10.942;2022-09-09T07:36:40;5.10;;;1.30;;
67828;SDS011;54626;45.436;10.942;2022-09-09T07:39:11;4.50;;;1.42;;
67828;SDS011;54626;45.436;10.942;2022-09-09T07:41:46;3.80;;;1.65;;
67828;SDS011;54626;45.436;10.942;2022-09-09T07:44:19;2.20;;;1.27;;
67828;SDS011;54626;45.436;10.942;2022-09-09T07:46:51;2.50;;;1.25;;
67828;SDS011;54626;45.436;10.942;2022-09-09T07:49:17;3.92;;;1.67;;
67828;SDS011;54626;45.436;10.942;2022-09-09T07:51:53;3.15;;;1.70;;
67828;SDS011;54626;45.436;10.942;2022-09-09T07:54:20;3.97;;;1.50;;
67828;SDS011;54626;45.436;10.942;2022-09-09T07:56:50;2.65;;;0.98;;
67828;SDS011;54626;45.436;10.942;2022-09-09T07:59:17;2.25;;;1.20;;
67828;SDS011;54626;45.436;10.942;2022-09-09T08:01:50;4.35;;;1.50;;
67828;SDS011;54626;45.436;10.942;2022-09-09T08:04:22;2.35;;;1.27;;
67828;SDS011;54626;45.436;10.942;2022-09-09T08:06:58;2.97;;;1.35;;
67828;SDS011;54626;45.436;10.942;2022-09-09T08:09:27;2.55;;;1.42;;
67828;SDS011;54626;45.436;10.942;2022-09-09T08:11:55;4.03;;;1.42;;
67828;SDS011;54626;45.436;10.942;2022-09-09T08:14:22;3.88;;;1.40;;
67828;SDS011;54626;45.436;10.942;2022-09-09T08:16:51;2.20;;;1.23;;
67828;SDS011;54626;45.436;10.942;2022-09-09T08:19:20;3.55;;;1.33;;
67828;SDS011;54626;45.436;10.942;2022-09-09T08:21:47;4.53;;;1.58;;
67828;SDS011;54626;45.436;10.942;2022-09-09T08:24:15;3.78;;;1.30;;
67828;SDS011;54626;45.436;10.942;2022-09-09T08:26:46;3.75;;;1.60;;
67828;SDS011;54626;45.436;10.942;2022-09-09T08:29:16;4.05;;;1.88;;
67828;SDS011;54626;45.436;10.942;2022-09-09T08:34:09;2.75;;;1.20;;
67828;SDS011;54626;45.436;10.942;2022-09-09T08:36:41;6.55;;;2.00;;
67828;SDS011;54626;45.436;10.942;2022-09-09T08:39:09;4.13;;;1.65;;
67828;SDS011;54626;45.436;10.942;2022-09-09T08:41:57;2.58;;;1.55;;
67828;SDS011;54626;45.436;10.942;2022-09-09T08:53:01;3.83;;;1.60;;
67828;SDS011;54626;45.436;10.942;2022-09-09T08:58:18;6.13;;;1.85;;
67828;SDS011;54626;45.436;10.942;2022-09-09T09:03:37;3.65;;;1.42;;
67828;SDS011;54626;45.436;10.942;2022-09-09T09:09:06;4.80;;;1.73;;
67828;SDS011;54626;45.436;10.942;2022-09-09T09:11:43;4.07;;;1.27;;
67828;SDS011;54626;45.436;10.942;2022-09-09T09:16:57;2.63;;;1.20;;
67828;SDS011;54626;45.436;10.942;2022-09-09T09:19:27;3.83;;;1.55;;
67828;SDS011;54626;45.436;10.942;2022-09-09T09:22:16;3.55;;;1.63;;
67828;SDS011;54626;45.436;10.942;2022-09-09T09:24:53;4.15;;;1.60;;
67828;SDS011;54626;45.436;10.942;2022-09-09T09:30:10;4.43;;;1.30;;
67828;SDS011;54626;45.436;10.942;2022-09-09T09:32:55;2.47;;;1.27;;
67828;SDS011;54626;45.436;10.942;2022-09-09T09:35:24;3.08;;;1.30;;
67828;SDS011;54626;45.436;10.942;2022-09-09T09:37:51;2.30;;;1.25;;
67828;SDS011;54626;45.436;10.942;2022-09-09T09:40:47;6.25;;;2.00;;
67828;SDS011;54626;45.436;10.942;2022-09-09T09:45:46;4.53;;;1.50;;
67828;SDS011;54626;45.436;10.942;2022-09-09T09:48:33;2.67;;;1.10;;
67828;SDS011;54626;45.436;10.942;2022-09-09T09:51:07;4.07;;;1.75;;
67828;SDS011;54626;45.436;10.942;2022-09-09T09:53:36;2.83;;;1.60;;
67828;SDS011;54626;45.436;10.942;2022-09-09T09:56:11;2.58;;;0.80;;
67828;SDS011;54626;45.436;10.942;2022-09-09T10:01:23;5.80;;;1.30;;
67828;SDS011;54626;45.436;10.942;2022-09-09T10:04:14;8.18;;;1.63;;
67828;SDS011;54626;45.436;10.942;2022-09-09T10:06:49;3.35;;;1.33;;
67828;SDS011;54626;45.436;10.942;2022-09-09T10:20:42;3.80;;;1.60;;
67828;SDS011;54626;45.436;10.942;2022-09-09T10:36:59;2.05;;;1.13;;
67828;SDS011;54626;45.436;10.942;2022-09-09T10:39:36;5.95;;;1.60;;
67828;SDS011;54626;45.436;10.942;2022-09-09T10:42:17;3.25;;;1.23;;
67828;SDS011;54626;45.436;10.942;2022-09-09T10:56:18;2.90;;;1.15;;
67828;SDS011;54626;45.436;10.942;2022-09-09T11:01:48;4.70;;;1.27;;
67828;SDS011;54626;45.436;10.942;2022-09-09T11:04:21;3.53;;;1.52;;
67828;SDS011;54626;45.436;10.942;2022-09-09T11:07:05;3.78;;;1.10;;
67828;SDS011;54626;45.436;10.942;2022-09-09T11:09:47;1.67;;;1.13;;
67828;SDS011;54626;45.436;10.942;2022-09-09T11:12:19;2.63;;;1.20;;
67828;SDS011;54626;45.436;10.942;2022-09-09T11:14:50;2.85;;;1.13;;
67828;SDS011;54626;45.436;10.942;2022-09-09T11:17:28;2.67;;;1.42;;
67828;SDS011;54626;45.436;10.942;2022-09-09T11:20:02;2.75;;;1.40;;
67828;SDS011;54626;45.436;10.942;2022-09-09T11:22:33;2.88;;;1.30;;
67828;SDS011;54626;45.436;10.942;2022-09-09T11:25:06;4.68;;;1.45;;
67828;SDS011;54626;45.436;10.942;2022-09-09T11:33:54;1.65;;;0.93;;
67828;SDS011;54626;45.436;10.942;2022-09-09T11:41:46;1.60;;;1.00;;
67828;SDS011;54626;45.436;10.942;2022-09-09T11:44:22;2.97;;;1.08;;
67828;SDS011;54626;45.436;10.942;2022-09-09T11:46:56;2.80;;;1.35;;
67828;SDS011;54626;45.436;10.942;2022-09-09T11:52:21;2.42;;;1.33;;
67828;SDS011;54626;45.436;10.942;2022-09-09T11:54:54;3.53;;;1.27;;
67828;SDS011;54626;45.436;10.942;2022-09-09T11:57:32;3.40;;;1.25;;
67828;SDS011;54626;45.436;10.942;2022-09-09T12:00:03;1.83;;;1.05;;
67828;SDS011;54626;45.436;10.942;2022-09-09T12:02:32;2.13;;;1.00;;
67828;SDS011;54626;45.436;10.942;2022-09-09T12:05:04;2.88;;;1.30;;
67828;SDS011;54626;45.436;10.942;2022-09-09T12:07:56;3.85;;;1.35;;
67828;SDS011;54626;45.436;10.942;2022-09-09T12:10:29;2.28;;;1.20;;
67828;SDS011;54626;45.436;10.942;2022-09-09T12:15:56;2.75;;;0.90;;
67828;SDS011;54626;45.436;10.942;2022-09-09T12:18:34;1.85;;;0.90;;
67828;SDS011;54626;45.436;10.942;2022-09-09T12:26:43;1.38;;;0.70;;
67828;SDS011;54626;45.436;10.942;2022-09-09T12:34:47;3.72;;;0.68;;
67828;SDS011;54626;45.436;10.942;2022-09-09T12:37:33;2.25;;;0.70;;
67828;SDS011;54626;45.436;10.942;2022-09-09T12:40:06;2.17;;;0.90;;
67828;SDS011;54626;45.436;10.942;2022-09-09T12:42:47;2.38;;;0.80;;
67828;SDS011;54626;45.436;10.942;2022-09-09T12:45:17;1.13;;;0.68;;
67828;SDS011;54626;45.436;10.942;2022-09-09T12:47:53;1.35;;;0.70;;
67828;SDS011;54626;45.436;10.942;2022-09-09T12:50:28;1.77;;;0.70;;
67828;SDS011;54626;45.436;10.942;2022-09-09T12:52:57;2.35;;;0.75;;
67828;SDS011;54626;45.436;10.942;2022-09-09T12:55:27;1.52;;;0.70;;
67828;SDS011;54626;45.436;10.942;2022-09-09T12:57:56;2.00;;;0.77;;
67828;SDS011;54626;45.436;10.942;2022-09-09T13:00:26;2.03;;;0.80;;
67828;SDS011;54626;45.436;10.942;2022-09-09T13:03:00;1.20;;;0.50;;
67828;SDS011;54626;45.436;10.942;2022-09-09T13:05:37;1.13;;;0.50;;
67828;SDS011;54626;45.436;10.942;2022-09-09T13:08:08;1.77;;;0.60;;
67828;SDS011;54626;45.436;10.942;2022-09-09T13:10:41;1.35;;;0.70;;
67828;SDS011;54626;45.436;10.942;2022-09-09T13:13:27;2.38;;;0.73;;
67828;SDS011;54626;45.436;10.942;2022-09-09T13:15:59;2.83;;;0.80;;
67828;SDS011;54626;45.436;10.942;2022-09-09T13:18:30;1.30;;;0.55;;
67828;SDS011;54626;45.436;10.942;2022-09-09T13:20:59;1.52;;;0.60;;
67828;SDS011;54626;45.436;10.942;2022-09-09T13:23:29;0.88;;;0.73;;
67828;SDS011;54626;45.436;10.942;2022-09-09T13:25:59;1.20;;;0.73;;
67828;SDS011;54626;45.436;10.942;2022-09-09T13:28:31;2.25;;;0.90;;
67828;SDS011;54626;45.436;10.942;2022-09-09T13:31:04;1.40;;;0.73;;
67828;SDS011;54626;45.436;10.942;2022-09-09T13:33:35;1.48;;;0.93;;
67828;SDS011;54626;45.436;10.942;2022-09-09T13:36:08;2.90;;;0.90;;
67828;SDS011;54626;45.436;10.942;2022-09-09T13:41:35;3.03;;;0.93;;
67828;SDS011;54626;45.436;10.942;2022-09-09T13:44:03;3.33;;;0.90;;
67828;SDS011;54626;45.436;10.942;2022-09-09T13:46:33;2.03;;;0.90;;
67828;SDS011;54626;45.436;10.942;2022-09-09T13:49:02;2.58;;;0.90;;
67828;SDS011;54626;45.436;10.942;2022-09-09T13:51:50;3.80;;;1.10;;
67828;SDS011;54626;45.436;10.942;2022-09-09T13:54:20;2.03;;;0.90;;
67828;SDS011;54626;45.436;10.942;2022-09-09T13:56:49;2.63;;;1.58;;
67828;SDS011;54626;45.436;10.942;2022-09-09T13:59:17;2.20;;;0.80;;
67828;SDS011;54626;45.436;10.942;2022-09-09T14:01:47;2.08;;;1.00;;
67828;SDS011;54626;45.436;10.942;2022-09-09T14:04:19;1.73;;;1.05;;
67828;SDS011;54626;45.436;10.942;2022-09-09T14:06:47;1.45;;;0.80;;
67828;SDS011;54626;45.436;10.942;2022-09-09T14:09:15;1.73;;;0.77;;
67828;SDS011;54626;45.436;10.942;2022-09-09T14:11:43;3.28;;;1.20;;
67828;SDS011;54626;45.436;10.942;2022-09-09T14:14:14;3.47;;;1.20;;
67828;SDS011;54626;45.436;10.942;2022-09-09T14:16:44;2.28;;;0.82;;
67828;SDS011;54626;45.436;10.942;2022-09-09T14:19:11;2.63;;;0.80;;
67828;SDS011;54626;45.436;10.942;2022-09-09T14:21:48;2.63;;;0.85;;
67828;SDS011;54626;45.436;10.942;2022-09-09T14:24:16;2.55;;;1.20;;
67828;SDS011;54626;45.436;10.942;2022-09-09T14:26:43;3.03;;;1.00;;
67828;SDS011;54626;45.436;10.942;2022-09-09T14:29:14;2.10;;;0.90;;
67828;SDS011;54626;45.436;10.942;2022-09-09T14:31:43;1.42;;;0.80;;
67828;SDS011;54626;45.436;10.942;2022-09-09T14:34:10;1.80;;;0.70;;
67828;SDS011;54626;45.436;10.942;2022-09-09T14:36:37;2.42;;;0.80;;
67828;SDS011;54626;45.436;10.942;2022-09-09T14:39:07;3.45;;;0.88;;
67828;SDS011;54626;45.436;10.942;2022-09-09T14:41:33;2.90;;;0.80;;
67828;SDS011;54626;45.436;10.942;2022-09-09T14:44:01;3.00;;;0.82;;
67828;SDS011;54626;45.436;10.942;2022-09-09T14:46:28;3.72;;;0.80;;
67828;SDS011;54626;45.436;10.942;2022-09-09T14:48:59;3.00;;;0.70;;
67828;SDS011;54626;45.436;10.942;2022-09-09T14:51:28;2.15;;;0.75;;
67828;SDS011;54626;45.436;10.942;2022-09-09T14:53:55;1.88;;;0.65;;
67828;SDS011;54626;45.436;10.942;2022-09-09T14:56:26;2.75;;;1.00;;
67828;SDS011;54626;45.436;10.942;2022-09-09T14:58:58;1.88;;;0.70;;
67828;SDS011;54626;45.436;10.942;2022-09-09T15:01:27;2.00;;;0.60;;
67828;SDS011;54626;45.436;10.942;2022-09-09T15:04:01;3.00;;;0.77;;
67828;SDS011;54626;45.436;10.942;2022-09-09T15:06:30;1.40;;;0.60;;
67828;SDS011;54626;45.436;10.942;2022-09-09T15:08:59;2.58;;;0.85;;
67828;SDS011;54626;45.436;10.942;2022-09-09T15:11:27;1.42;;;0.60;;
67828;SDS011;54626;45.436;10.942;2022-09-09T15:13:56;1.92;;;0.70;;
67828;SDS011;54626;45.436;10.942;2022-09-09T15:16:24;1.27;;;0.60;;
67828;SDS011;54626;45.436;10.942;2022-09-09T15:18:52;1.33;;;0.55;;
67828;SDS011;54626;45.436;10.942;2022-09-09T15:21:21;2.95;;;1.05;;
67828;SDS011;54626;45.436;10.942;2022-09-09T15:23:52;3.33;;;0.60;;
67828;SDS011;54626;45.436;10.942;2022-09-09T15:26:18;1.00;;;0.60;;
67828;SDS011;54626;45.436;10.942;2022-09-09T15:28:47;4.18;;;1.02;;
67828;SDS011;54626;45.436;10.942;2022-09-09T15:31:15;3.13;;;0.70;;
67828;SDS011;54626;45.436;10.942;2022-09-09T15:33:48;2.17;;;0.88;;
67828;SDS011;54626;45.436;10.942;2022-09-09T15:36:16;1.60;;;0.80;;
67828;SDS011;54626;45.436;10.942;2022-09-09T15:38:49;1.35;;;0.60;;
67828;SDS011;54626;45.436;10.942;2022-09-09T15:41:17;2.88;;;0.73;;
67828;SDS011;54626;45.436;10.942;2022-09-09T15:43:45;3.67;;;0.80;;
67828;SDS011;54626;45.436;10.942;2022-09-09T15:46:34;2.63;;;0.70;;
67828;SDS011;54626;45.436;10.942;2022-09-09T15:49:07;1.77;;;0.60;;
67828;SDS011;54626;45.436;10.942;2022-09-09T15:51:40;1.20;;;0.60;;
67828;SDS011;54626;45.436;10.942;2022-09-09T15:54:13;3.13;;;0.70;;
67828;SDS011;54626;45.436;10.942;2022-09-09T15:56:45;0.93;;;0.63;;
67828;SDS011;54626;45.436;10.942;2022-09-09T15:59:15;1.00;;;0.52;;
67828;SDS011;54626;45.436;10.942;2022-09-09T16:01:43;2.08;;;0.45;;
67828;SDS011;54626;45.436;10.942;2022-09-09T16:04:10;2.33;;;0.90;;
67828;SDS011;54626;45.436;10.942;2022-09-09T16:06:37;1.23;;;0.70;;
67828;SDS011;54626;45.436;10.942;2022-09-09T16:09:05;0.80;;;0.60;;
67828;SDS011;54626;45.436;10.942;2022-09-09T16:11:36;1.77;;;0.73;;
67828;SDS011;54626;45.436;10.942;2022-09-09T16:14:06;1.48;;;0.80;;
67828;SDS011;54626;45.436;10.942;2022-09-09T16:16:33;0.77;;;0.55;;
67828;SDS011;54626;45.436;10.942;2022-09-09T16:19:08;2.65;;;1.00;;
67828;SDS011;54626;45.436;10.942;2022-09-09T16:21:45;1.92;;;1.00;;
67828;SDS011;54626;45.436;10.942;2022-09-09T16:24:14;2.55;;;0.82;;
67828;SDS011;54626;45.436;10.942;2022-09-09T16:26:53;2.08;;;0.88;;
67828;SDS011;54626;45.436;10.942;2022-09-09T16:29:31;2.65;;;0.80;;
67828;SDS011;54626;45.436;10.942;2022-09-09T16:31:58;2.25;;;0.77;;
67828;SDS011;54626;45.436;10.942;2022-09-09T16:34:29;2.10;;;0.90;;
67828;SDS011;54626;45.436;10.942;2022-09-09T16:36:56;1.25;;;0.57;;
67828;SDS011;54626;45.436;10.942;2022-09-09T16:39:22;2.80;;;0.85;;
67828;SDS011;54626;45.436;10.942;2022-09-09T16:41:49;1.50;;;0.70;;
67828;SDS011;54626;45.436;10.942;2022-09-09T16:44:16;1.45;;;0.60;;
67828;SDS011;54626;45.436;10.942;2022-09-09T16:46:47;2.35;;;0.88;;
67828;SDS011;54626;45.436;10.942;2022-09-09T16:49:15;0.90;;;0.50;;
67828;SDS011;54626;45.436;10.942;2022-09-09T16:51:43;2.08;;;0.77;;
67828;SDS011;54626;45.436;10.942;2022-09-09T16:54:16;1.48;;;0.73;;
67828;SDS011;54626;45.436;10.942;2022-09-09T16:56:46;2.47;;;0.75;;
67828;SDS011;54626;45.436;10.942;2022-09-09T16:59:14;0.93;;;0.73;;
67828;SDS011;54626;45.436;10.942;2022-09-09T17:01:47;1.45;;;0.60;;
67828;SDS011;54626;45.436;10.942;2022-09-09T17:04:19;2.08;;;0.80;;
67828;SDS011;54626;45.436;10.942;2022-09-09T17:06:48;1.77;;;0.90;;
67828;SDS011;54626;45.436;10.942;2022-09-09T17:09:15;3.25;;;0.80;;
67828;SDS011;54626;45.436;10.942;2022-09-09T17:11:42;1.05;;;0.70;;
67828;SDS011;54626;45.436;10.942;2022-09-09T17:14:10;1.67;;;0.40;;
67828;SDS011;54626;45.436;10.942;2022-09-09T17:16:39;1.73;;;0.70;;
67828;SDS011;54626;45.436;10.942;2022-09-09T17:19:06;1.80;;;0.50;;
67828;SDS011;54626;45.436;10.942;2022-09-09T17:21:37;3.22;;;0.60;;
67828;SDS011;54626;45.436;10.942;2022-09-09T17:24:24;1.27;;;0.57;;
67828;SDS011;54626;45.436;10.942;2022-09-09T17:26:52;1.63;;;0.65;;
67828;SDS011;54626;45.436;10.942;2022-09-09T17:29:18;1.40;;;0.57;;
67828;SDS011;54626;45.436;10.942;2022-09-09T17:31:47;1.20;;;0.60;;